createdAt,value
2019-01-04T00:00:35.574Z,1.31
2019-01-04T00:01:35.809Z,1.37
2019-01-04T00:02:35.657Z,1.37
2019-01-04T00:03:35.971Z,1.37
2019-01-04T00:04:47.469Z,1.37
2019-01-04T00:05:35.714Z,1.37
2019-01-04T00:06:35.722Z,1.37
2019-01-04T00:07:35.736Z,1.44
2019-01-04T00:08:35.773Z,1.37
2019-01-04T00:09:35.946Z,1.37
2019-01-04T00:10:36.111Z,1.37
2019-01-04T00:11:35.778Z,1.44
2019-01-04T00:12:35.792Z,1.37
2019-01-04T00:13:35.546Z,1.37
2019-01-04T00:14:35.803Z,1.37
2019-01-04T00:15:35.572Z,1.37
2019-01-04T00:16:35.795Z,1.37
2019-01-04T00:17:35.611Z,1.37
2019-01-04T00:18:35.732Z,1.37
2019-01-04T00:19:35.614Z,1.31
2019-01-04T00:20:35.511Z,1.31
2019-01-04T00:21:35.596Z,1.25
2019-01-04T00:22:35.532Z,1.25
2019-01-04T00:23:35.632Z,1.25
2019-01-04T00:24:35.650Z,1.25
2019-01-04T00:25:35.524Z,1.25
2019-01-04T00:26:35.624Z,1.25
2019-01-04T00:27:35.631Z,1.25
2019-01-04T00:28:35.521Z,1.25
2019-01-04T00:29:35.582Z,1.25
2019-01-04T00:30:35.487Z,1.25
2019-01-04T00:31:35.660Z,1.25
2019-01-04T00:32:35.704Z,1.25
2019-01-04T00:33:35.631Z,1.19
2019-01-04T00:34:35.515Z,1.25
2019-01-04T00:35:35.518Z,1.25
2019-01-04T00:36:35.541Z,1.19
2019-01-04T00:37:35.532Z,1.19
2019-01-04T00:38:35.840Z,1.19
2019-01-04T00:39:35.697Z,1.12
2019-01-04T00:40:35.577Z,1.12
2019-01-04T00:41:35.561Z,1.12
2019-01-04T00:42:35.534Z,1.12
2019-01-04T00:43:35.746Z,1.12
2019-01-04T00:44:35.551Z,1.06
2019-01-04T00:45:35.857Z,1.06
2019-01-04T00:46:35.562Z,1.12
2019-01-04T00:47:35.808Z,1.06
2019-01-04T00:48:35.729Z,1.12
2019-01-04T00:49:35.760Z,1.06
2019-01-04T00:50:35.693Z,1.12
2019-01-04T00:51:35.487Z,1.06
2019-01-04T00:52:35.627Z,1.06
2019-01-04T00:53:35.518Z,1.06
2019-01-04T00:54:35.602Z,1.06
2019-01-04T00:55:35.504Z,1.06
2019-01-04T00:56:35.609Z,1.06
2019-01-04T00:57:35.965Z,1
2019-01-04T00:58:35.550Z,1.06
2019-01-04T00:59:35.810Z,1.06
2019-01-04T01:00:36.005Z,1.06
2019-01-04T01:01:35.634Z,1.06
2019-01-04T01:02:35.692Z,1.06
2019-01-04T01:03:35.497Z,1.06
2019-01-04T01:04:35.903Z,1.12
2019-01-04T01:05:35.905Z,1.06
2019-01-04T01:06:35.726Z,1.12
2019-01-04T01:07:35.848Z,1.06
2019-01-04T01:08:35.844Z,1.06
2019-01-04T01:09:35.598Z,1.06
2019-01-04T01:10:35.544Z,1.06
2019-01-04T01:11:35.675Z,1
2019-01-04T01:12:35.594Z,1
2019-01-04T01:13:35.616Z,1
2019-01-04T01:14:35.559Z,1.06
2019-01-04T01:15:35.584Z,1.06
2019-01-04T01:16:35.677Z,1.06
2019-01-04T01:17:35.764Z,1
2019-01-04T01:18:35.741Z,1
2019-01-04T01:19:35.747Z,0.94
2019-01-04T01:20:35.449Z,1
2019-01-04T01:21:35.515Z,0.94
2019-01-04T01:22:35.478Z,1
2019-01-04T01:23:35.499Z,1
2019-01-04T01:24:35.543Z,0.94
2019-01-04T01:25:35.765Z,1
2019-01-04T01:26:35.527Z,1
2019-01-04T01:27:35.856Z,1
2019-01-04T01:28:35.673Z,1
2019-01-04T01:29:35.543Z,1
2019-01-04T01:30:35.555Z,1
2019-01-04T01:31:35.695Z,1
2019-01-04T01:32:35.613Z,1
2019-01-04T01:33:35.437Z,0.94
2019-01-04T01:34:35.605Z,0.94
2019-01-04T01:35:35.516Z,0.94
2019-01-04T01:36:35.414Z,0.94
2019-01-04T01:37:35.728Z,0.88
2019-01-04T01:38:35.681Z,0.94
2019-01-04T01:39:35.768Z,0.88
2019-01-04T01:40:35.802Z,0.81
2019-01-04T01:41:35.612Z,0.81
2019-01-04T01:42:35.622Z,0.81
2019-01-04T01:43:35.443Z,0.81
2019-01-04T01:44:35.650Z,0.75
2019-01-04T01:45:35.436Z,0.75
2019-01-04T01:46:35.738Z,0.75
2019-01-04T01:47:35.628Z,0.69
2019-01-04T01:48:35.411Z,0.69
2019-01-04T01:49:35.504Z,0.69
2019-01-04T01:50:35.462Z,0.69
2019-01-04T01:51:35.571Z,0.69
2019-01-04T01:52:35.439Z,0.69
2019-01-04T01:53:35.430Z,0.62
2019-01-04T01:54:35.453Z,0.69
2019-01-04T01:55:35.527Z,0.62
2019-01-04T01:56:35.588Z,0.62
2019-01-04T01:57:35.616Z,0.69
2019-01-04T01:58:35.626Z,0.62
2019-01-04T01:59:36.273Z,0.69
2019-01-04T02:00:35.450Z,0.62
2019-01-04T02:01:35.436Z,0.62
2019-01-04T02:02:35.410Z,0.62
2019-01-04T02:03:35.413Z,0.69
2019-01-04T02:04:35.576Z,0.62
2019-01-04T02:05:35.602Z,0.62
2019-01-04T02:06:35.552Z,0.56
2019-01-04T02:07:35.407Z,0.56
2019-01-04T02:08:35.846Z,0.56
2019-01-04T02:09:35.476Z,0.56
2019-01-04T02:10:35.364Z,0.56
2019-01-04T02:11:35.457Z,0.5
2019-01-04T02:12:35.787Z,0.5
2019-01-04T02:13:35.382Z,0.56
2019-01-04T02:14:35.406Z,0.56
2019-01-04T02:15:35.619Z,0.56
2019-01-04T02:16:35.405Z,0.56
2019-01-04T02:17:35.448Z,0.56
2019-01-04T02:18:35.479Z,0.56
2019-01-04T02:19:35.372Z,0.56
2019-01-04T02:20:35.430Z,0.56
2019-01-04T02:21:35.505Z,0.56
2019-01-04T02:22:35.714Z,0.56
2019-01-04T02:23:36.205Z,0.56
2019-01-04T02:24:35.550Z,0.56
2019-01-04T02:25:35.536Z,0.56
2019-01-04T02:26:35.537Z,0.56
2019-01-04T02:27:35.515Z,0.56
2019-01-04T02:28:35.607Z,0.62
2019-01-04T02:29:35.596Z,0.62
2019-01-04T02:30:35.403Z,0.62
2019-01-04T02:31:36.656Z,0.62
2019-01-04T02:32:35.463Z,0.69
2019-01-04T02:33:35.563Z,0.69
2019-01-04T02:34:35.344Z,0.69
2019-01-04T02:35:35.664Z,0.69
2019-01-04T02:36:35.611Z,0.69
2019-01-04T02:37:36.233Z,0.75
2019-01-04T02:38:35.740Z,0.69
2019-01-04T02:39:35.670Z,0.75
2019-01-04T02:40:35.524Z,0.69
2019-01-04T02:41:35.517Z,0.75
2019-01-04T02:42:35.479Z,0.69
2019-01-04T02:43:35.742Z,0.75
2019-01-04T02:44:35.311Z,0.69
2019-01-04T02:45:35.339Z,0.75
2019-01-04T02:46:35.346Z,0.69
2019-01-04T02:47:35.514Z,0.75
2019-01-04T02:48:35.323Z,0.69
2019-01-04T02:49:35.314Z,0.75
2019-01-04T02:50:35.355Z,0.75
2019-01-04T02:51:35.499Z,0.75
2019-01-04T02:52:35.385Z,0.75
2019-01-04T02:53:35.411Z,0.75
2019-01-04T02:54:35.318Z,0.75
2019-01-04T02:55:35.566Z,0.81
2019-01-04T02:56:35.558Z,0.81
2019-01-04T02:57:35.596Z,0.81
2019-01-04T02:58:35.307Z,0.75
2019-01-04T02:59:35.565Z,0.75
2019-01-04T03:00:35.382Z,0.75
2019-01-04T03:01:35.355Z,0.75
2019-01-04T03:02:35.718Z,0.75
2019-01-04T03:03:35.481Z,0.81
2019-01-04T03:04:35.529Z,0.75
2019-01-04T03:05:35.447Z,0.75
2019-01-04T03:06:35.282Z,0.81
2019-01-04T03:07:35.648Z,0.81
2019-01-04T03:08:35.586Z,0.81
2019-01-04T03:09:35.532Z,0.75
2019-01-04T03:10:35.497Z,0.75
2019-01-04T03:11:36.145Z,0.75
2019-01-04T03:12:35.537Z,0.75
2019-01-04T03:13:35.507Z,0.75
2019-01-04T03:14:35.520Z,0.75
2019-01-04T03:15:35.285Z,0.69
2019-01-04T03:16:35.560Z,0.75
2019-01-04T03:17:35.543Z,0.75
2019-01-04T03:18:35.406Z,0.75
2019-01-04T03:19:35.313Z,0.75
2019-01-04T03:20:35.308Z,0.69
2019-01-04T03:21:35.444Z,0.69
2019-01-04T03:22:36.150Z,0.75
2019-01-04T03:23:35.523Z,0.69
2019-01-04T03:24:36.128Z,0.69
2019-01-04T03:25:35.433Z,0.69
2019-01-04T03:26:35.309Z,0.69
2019-01-04T03:27:35.489Z,0.69
2019-01-04T03:28:35.324Z,0.69
2019-01-04T03:29:35.538Z,0.69
2019-01-04T03:30:35.448Z,0.69
2019-01-04T03:31:35.741Z,0.69
2019-01-04T03:32:35.298Z,0.69
2019-01-04T03:33:35.430Z,0.69
2019-01-04T03:34:35.344Z,0.75
2019-01-04T03:35:35.593Z,0.69
2019-01-04T03:36:35.447Z,0.69
2019-01-04T03:37:35.555Z,0.69
2019-01-04T03:38:35.272Z,0.75
2019-01-04T03:39:35.293Z,0.69
2019-01-04T03:40:35.254Z,0.69
2019-01-04T03:41:35.578Z,0.69
2019-01-04T03:42:35.657Z,0.69
2019-01-04T03:43:35.239Z,0.69
2019-01-04T03:44:35.523Z,0.69
2019-01-04T03:45:35.314Z,0.62
2019-01-04T03:46:35.599Z,0.62
2019-01-04T03:47:35.313Z,0.62
2019-01-04T03:48:35.344Z,0.62
2019-01-04T03:49:35.363Z,0.62
2019-01-04T03:50:35.264Z,0.62
2019-01-04T03:51:35.303Z,0.62
2019-01-04T03:52:35.270Z,0.69
2019-01-04T03:53:35.413Z,0.62
2019-01-04T03:54:35.301Z,0.69
2019-01-04T03:55:35.391Z,0.62
2019-01-04T03:56:35.281Z,0.75
2019-01-04T03:57:35.257Z,0.69
2019-01-04T03:58:35.239Z,0.75
2019-01-04T03:59:35.255Z,0.69
2019-01-04T04:00:35.257Z,0.75
2019-01-04T04:01:35.271Z,0.69
2019-01-04T04:02:35.293Z,0.69
2019-01-04T04:03:35.283Z,0.69
2019-01-04T04:04:35.230Z,0.75
2019-01-04T04:05:35.230Z,0.62
2019-01-04T04:06:35.239Z,0.62
2019-01-04T04:07:35.437Z,0.62
2019-01-04T04:08:35.487Z,0.62
2019-01-04T04:09:35.242Z,0.62
2019-01-04T04:10:35.228Z,0.56
2019-01-04T04:11:35.457Z,0.62
2019-01-04T04:12:35.231Z,0.56
2019-01-04T04:13:35.609Z,0.56
2019-01-04T04:14:35.367Z,0.56
2019-01-04T04:15:35.314Z,0.56
2019-01-04T04:16:35.464Z,0.5
2019-01-04T04:17:35.416Z,0.56
2019-01-04T04:18:35.543Z,0.56
2019-01-04T04:19:36.045Z,0.56
2019-01-04T04:20:35.550Z,0.56
2019-01-04T04:21:35.429Z,0.56
2019-01-04T04:22:35.265Z,0.56
2019-01-04T04:23:35.478Z,0.56
2019-01-04T04:24:35.188Z,0.56
2019-01-04T04:25:35.213Z,0.56
2019-01-04T04:26:35.528Z,0.56
2019-01-04T04:27:35.401Z,0.56
2019-01-04T04:28:35.246Z,0.56
2019-01-04T04:29:35.193Z,0.62
2019-01-04T04:30:35.223Z,0.56
2019-01-04T04:31:35.212Z,0.56
2019-01-04T04:32:35.691Z,0.56
2019-01-04T04:33:35.191Z,0.56
2019-01-04T04:34:35.241Z,0.56
2019-01-04T04:35:35.348Z,0.56
2019-01-04T04:36:35.209Z,0.56
2019-01-04T04:37:35.554Z,0.56
2019-01-04T04:38:35.526Z,0.56
2019-01-04T04:39:35.352Z,0.56
2019-01-04T04:40:35.342Z,0.5
2019-01-04T04:41:35.246Z,0.56
2019-01-04T04:42:35.247Z,0.56
2019-01-04T04:43:35.208Z,0.5
2019-01-04T04:44:35.304Z,0.5
2019-01-04T04:45:35.315Z,0.5
2019-01-04T04:46:35.810Z,0.44
2019-01-04T04:47:35.701Z,0.44
2019-01-04T04:48:35.581Z,0.44
2019-01-04T04:49:35.353Z,0.44
2019-01-04T04:50:35.439Z,0.44
2019-01-04T04:51:36.023Z,0.44
2019-01-04T04:52:35.967Z,0.44
2019-01-04T04:53:36.397Z,0.44
2019-01-04T04:54:35.337Z,0.44
2019-01-04T04:55:35.346Z,0.44
2019-01-04T04:56:35.230Z,0.5
2019-01-04T04:57:35.344Z,0.5
2019-01-04T04:58:35.285Z,0.44
2019-01-04T04:59:35.200Z,0.44
2019-01-04T05:00:35.396Z,0.5
2019-01-04T05:01:35.485Z,0.5
2019-01-04T05:02:35.448Z,0.5
2019-01-04T05:03:35.184Z,0.44
2019-01-04T05:04:35.259Z,0.5
2019-01-04T05:05:35.308Z,0.5
2019-01-04T05:06:35.235Z,0.44
2019-01-04T05:07:35.619Z,0.5
2019-01-04T05:08:35.351Z,0.5
2019-01-04T05:09:35.241Z,0.56
2019-01-04T05:10:35.125Z,0.56
2019-01-04T05:11:35.688Z,0.56
2019-01-04T05:12:35.187Z,0.56
2019-01-04T05:13:35.349Z,0.62
2019-01-04T05:14:35.322Z,0.56
2019-01-04T05:15:35.309Z,0.56
2019-01-04T05:16:35.177Z,0.56
2019-01-04T05:17:35.486Z,0.56
2019-01-04T05:18:35.290Z,0.56
2019-01-04T05:19:35.297Z,0.62
2019-01-04T05:20:35.375Z,0.56
2019-01-04T05:21:35.111Z,0.62
2019-01-04T05:22:35.164Z,0.62
2019-01-04T05:23:35.568Z,0.62
2019-01-04T05:24:35.265Z,0.62
2019-01-04T05:25:35.085Z,0.62
2019-01-04T05:26:35.373Z,0.62
2019-01-04T05:27:35.612Z,0.62
2019-01-04T05:28:35.228Z,0.62
2019-01-04T05:29:35.096Z,0.62
2019-01-04T05:30:35.329Z,0.62
2019-01-04T05:31:35.438Z,0.62
2019-01-04T05:32:35.167Z,0.62
2019-01-04T05:33:35.145Z,0.62
2019-01-04T05:34:35.167Z,0.62
2019-01-04T05:35:35.074Z,0.62
2019-01-04T05:36:35.233Z,0.62
2019-01-04T05:37:35.186Z,0.62
2019-01-04T05:38:35.126Z,0.62
2019-01-04T05:39:35.158Z,0.62
2019-01-04T05:40:35.095Z,0.62
2019-01-04T05:41:35.217Z,0.62
2019-01-04T05:42:35.121Z,0.62
2019-01-04T05:43:35.188Z,0.69
2019-01-04T05:44:35.201Z,0.62
2019-01-04T05:45:35.237Z,0.69
2019-01-04T05:46:35.187Z,0.62
2019-01-04T05:47:35.215Z,0.69
2019-01-04T05:48:35.231Z,0.62
2019-01-04T05:49:35.221Z,0.62
2019-01-04T05:50:35.140Z,0.62
2019-01-04T05:51:35.285Z,0.62
2019-01-04T05:52:35.417Z,0.62
2019-01-04T05:53:35.309Z,0.62
2019-01-04T05:54:35.140Z,0.62
2019-01-04T05:55:35.200Z,0.62
2019-01-04T05:56:35.290Z,0.62
2019-01-04T05:57:35.140Z,0.56
2019-01-04T05:58:35.183Z,0.62
2019-01-04T05:59:35.902Z,0.62
2019-01-04T06:00:35.218Z,0.62
2019-01-04T06:01:35.242Z,0.62
2019-01-04T06:02:35.126Z,0.62
2019-01-04T06:03:35.051Z,0.62
2019-01-04T06:04:35.276Z,0.69
2019-01-04T06:05:35.140Z,0.62
2019-01-04T06:06:35.522Z,0.62
2019-01-04T06:07:35.261Z,0.62
2019-01-04T06:08:35.220Z,0.62
2019-01-04T06:09:35.418Z,0.69
2019-01-04T06:10:35.235Z,0.69
2019-01-04T06:11:35.346Z,0.62
2019-01-04T06:12:35.219Z,0.69
2019-01-04T06:13:35.328Z,0.62
2019-01-04T06:14:35.460Z,0.69
2019-01-04T06:15:35.213Z,0.62
2019-01-04T06:16:35.214Z,0.69
2019-01-04T06:17:35.252Z,0.69
2019-01-04T06:18:35.044Z,0.69
2019-01-04T06:19:35.255Z,0.69
2019-01-04T06:20:35.891Z,0.69
2019-01-04T06:21:35.030Z,0.69
2019-01-04T06:22:35.288Z,0.69
2019-01-04T06:23:35.929Z,0.69
2019-01-04T06:24:35.769Z,0.69
2019-01-04T06:25:35.241Z,0.69
2019-01-04T06:26:35.031Z,0.75
2019-01-04T06:27:35.906Z,0.69
2019-01-04T06:28:35.431Z,0.75
2019-01-04T06:29:35.270Z,0.69
2019-01-04T06:30:35.029Z,0.75
2019-01-04T06:31:35.048Z,0.75
2019-01-04T06:32:35.721Z,0.75
2019-01-04T06:33:35.470Z,0.69
2019-01-04T06:34:35.119Z,0.69
2019-01-04T06:35:35.319Z,0.69
2019-01-04T06:36:35.285Z,0.69
2019-01-04T06:37:35.078Z,0.69
2019-01-04T06:38:35.210Z,0.75
2019-01-04T06:39:35.240Z,0.69
2019-01-04T06:40:35.009Z,0.69
2019-01-04T06:41:35.255Z,0.69
2019-01-04T06:42:35.319Z,0.69
2019-01-04T06:43:35.418Z,0.62
2019-01-04T06:44:35.020Z,0.69
2019-01-04T06:45:35.324Z,0.69
2019-01-04T06:46:35.834Z,0.69
2019-01-04T06:47:35.186Z,0.69
2019-01-04T06:48:35.203Z,0.69
2019-01-04T06:49:35.166Z,0.69
2019-01-04T06:50:35.365Z,0.62
2019-01-04T06:51:35.390Z,0.69
2019-01-04T06:52:35.185Z,0.69
2019-01-04T06:53:35.309Z,0.69
2019-01-04T06:54:35.182Z,0.62
2019-01-04T06:55:35.391Z,0.62
2019-01-04T06:56:35.150Z,0.69
2019-01-04T06:57:35.165Z,0.69
2019-01-04T06:58:35.186Z,0.69
2019-01-04T06:59:35.210Z,0.62
2019-01-04T07:00:35.850Z,0.69
2019-01-04T07:01:35.095Z,0.69
2019-01-04T07:02:35.110Z,0.69
2019-01-04T07:03:35.374Z,0.69
2019-01-04T07:04:35.196Z,0.69
2019-01-04T07:05:35.270Z,0.69
2019-01-04T07:06:35.067Z,0.69
2019-01-04T07:07:35.150Z,0.69
2019-01-04T07:08:35.029Z,0.69
2019-01-04T07:09:35.163Z,0.69
2019-01-04T07:10:35.167Z,0.69
2019-01-04T07:11:35.010Z,0.69
2019-01-04T07:12:35.138Z,0.69
2019-01-04T07:13:35.261Z,0.69
2019-01-04T07:14:35.090Z,0.69
2019-01-04T07:15:35.419Z,0.75
2019-01-04T07:16:35.064Z,0.69
2019-01-04T07:17:34.946Z,0.69
2019-01-04T07:18:35.111Z,0.69
2019-01-04T07:19:34.935Z,0.69
2019-01-04T07:20:35.146Z,0.69
2019-01-04T07:21:35.129Z,0.69
2019-01-04T07:22:35.197Z,0.69
2019-01-04T07:23:35.091Z,0.69
2019-01-04T07:24:35.118Z,0.69
2019-01-04T07:25:34.938Z,0.69
2019-01-04T07:26:35.233Z,0.69
2019-01-04T07:27:35.196Z,0.69
2019-01-04T07:28:35.145Z,0.62
2019-01-04T07:29:35.157Z,0.69
2019-01-04T07:30:35.026Z,0.62
2019-01-04T07:31:35.309Z,0.69
2019-01-04T07:32:35.012Z,0.62
2019-01-04T07:33:35.255Z,0.62
2019-01-04T07:34:35.055Z,0.62
2019-01-04T07:35:35.176Z,0.69
2019-01-04T07:36:35.154Z,0.62
2019-01-04T07:37:35.741Z,0.69
2019-01-04T07:38:35.757Z,0.62
2019-01-04T07:39:34.936Z,0.62
2019-01-04T07:40:34.937Z,0.69
2019-01-04T07:41:35.619Z,0.62
2019-01-04T07:42:35.230Z,0.69
2019-01-04T07:43:35.086Z,0.69
2019-01-04T07:44:35.093Z,0.69
2019-01-04T07:45:35.272Z,0.75
2019-01-04T07:46:34.920Z,0.69
2019-01-04T07:47:35.163Z,0.69
2019-01-04T07:48:35.229Z,0.69
2019-01-04T07:49:34.942Z,0.69
2019-01-04T07:50:35.160Z,0.69
2019-01-04T07:51:35.291Z,0.75
2019-01-04T07:52:34.966Z,0.75
2019-01-04T07:53:35.072Z,0.69
2019-01-04T07:54:34.998Z,0.69
2019-01-04T07:55:35.120Z,0.69
2019-01-04T07:56:34.987Z,0.69
2019-01-04T07:57:35.085Z,0.69
2019-01-04T07:58:35.312Z,0.62
2019-01-04T07:59:34.928Z,0.69
2019-01-04T08:00:35.242Z,0.69
2019-01-04T08:01:35.111Z,0.69
2019-01-04T08:02:35.148Z,0.75
2019-01-04T08:03:35.120Z,0.75
2019-01-04T08:04:34.944Z,0.69
2019-01-04T08:05:34.934Z,0.75
2019-01-04T08:06:34.984Z,0.75
2019-01-04T08:07:34.944Z,0.75
2019-01-04T08:08:34.889Z,0.69
2019-01-04T08:09:35.167Z,0.69
2019-01-04T08:10:35.004Z,0.69
2019-01-04T08:11:35.703Z,0.69
2019-01-04T08:12:34.884Z,0.69
2019-01-04T08:13:35.313Z,0.69
2019-01-04T08:14:34.935Z,0.69
2019-01-04T08:15:35.094Z,0.69
2019-01-04T08:16:35.210Z,0.69
2019-01-04T08:17:35.093Z,0.75
2019-01-04T08:18:35.094Z,0.75
2019-01-04T08:19:34.986Z,0.69
2019-01-04T08:20:35.141Z,0.69
2019-01-04T08:21:34.880Z,0.69
2019-01-04T08:22:35.149Z,0.69
2019-01-04T08:23:35.216Z,0.69
2019-01-04T08:24:34.895Z,0.69
2019-01-04T08:25:35.131Z,0.69
2019-01-04T08:26:35.079Z,0.75
2019-01-04T08:27:35.729Z,0.69
2019-01-04T08:28:35.106Z,0.69
2019-01-04T08:29:35.010Z,0.69
2019-01-04T08:30:34.947Z,0.69
2019-01-04T08:31:35.110Z,0.75
2019-01-04T08:32:35.133Z,0.75
2019-01-04T08:33:35.086Z,0.75
2019-01-04T08:34:35.133Z,0.75
2019-01-04T08:35:34.898Z,0.81
2019-01-04T08:36:34.940Z,0.88
2019-01-04T08:37:34.979Z,0.88
2019-01-04T08:38:34.971Z,0.94
2019-01-04T08:39:35.220Z,0.88
2019-01-04T08:40:34.846Z,0.94
2019-01-04T08:41:34.858Z,0.94
2019-01-04T08:42:35.123Z,0.94
2019-01-04T08:43:35.243Z,0.94
2019-01-04T08:44:34.952Z,1
2019-01-04T08:45:35.174Z,0.94
2019-01-04T08:46:34.790Z,1
2019-01-04T08:47:35.230Z,1
2019-01-04T08:48:35.144Z,1
2019-01-04T08:49:34.911Z,1
2019-01-04T08:50:34.953Z,1.06
2019-01-04T08:51:34.930Z,1
2019-01-04T08:52:34.917Z,1.06
2019-01-04T08:53:34.844Z,1.12
2019-01-04T08:54:35.276Z,1.12
2019-01-04T08:55:34.929Z,1.06
2019-01-04T08:56:34.855Z,1.06
2019-01-04T08:57:34.851Z,1.06
2019-01-04T08:58:34.844Z,1.12
2019-01-04T08:59:35.598Z,1.12
2019-01-04T09:00:35.215Z,1.12
2019-01-04T09:01:34.935Z,1.12
2019-01-04T09:02:34.867Z,1.12
2019-01-04T09:03:34.859Z,1.12
2019-01-04T09:04:34.956Z,1.19
2019-01-04T09:05:34.931Z,1.19
2019-01-04T09:06:35.141Z,1.19
2019-01-04T09:07:34.965Z,1.12
2019-01-04T09:08:35.169Z,1.19
2019-01-04T09:09:34.944Z,1.19
2019-01-04T09:10:35.101Z,1.25
2019-01-04T09:11:34.958Z,1.19
2019-01-04T09:12:34.945Z,1.19
2019-01-04T09:13:35.079Z,1.19
2019-01-04T09:14:35.059Z,1.25
2019-01-04T09:15:35.169Z,1.19
2019-01-04T09:16:34.913Z,1.19
2019-01-04T09:17:34.993Z,1.19
2019-01-04T09:18:34.958Z,1.25
2019-01-04T09:19:35.270Z,1.25
2019-01-04T09:20:34.989Z,1.31
2019-01-04T09:21:35.267Z,1.25
2019-01-04T09:22:35.459Z,1.25
2019-01-04T09:23:35.309Z,1.31
2019-01-04T09:24:34.798Z,1.31
2019-01-04T09:25:34.863Z,1.31
2019-01-04T09:26:35.212Z,1.31
2019-01-04T09:27:34.915Z,1.31
2019-01-04T09:28:34.910Z,1.31
2019-01-04T09:29:34.835Z,1.31
2019-01-04T09:30:35.187Z,1.31
2019-01-04T09:31:34.755Z,1.31
2019-01-04T09:32:34.981Z,1.31
2019-01-04T09:33:34.981Z,1.31
2019-01-04T09:34:35.169Z,1.31
2019-01-04T09:35:34.870Z,1.31
2019-01-04T09:36:35.152Z,1.31
2019-01-04T09:37:34.830Z,1.37
2019-01-04T09:38:34.854Z,1.31
2019-01-04T09:39:34.946Z,1.31
2019-01-04T09:40:34.820Z,1.31
2019-01-04T09:41:35.369Z,1.37
2019-01-04T09:42:35.021Z,1.31
2019-01-04T09:43:34.768Z,1.37
2019-01-04T09:44:35.190Z,1.37
2019-01-04T09:45:35.177Z,1.37
2019-01-04T09:46:35.118Z,1.37
2019-01-04T09:47:34.764Z,1.44
2019-01-04T09:48:35.095Z,1.44
2019-01-04T09:49:34.764Z,1.44
2019-01-04T09:50:34.779Z,1.44
2019-01-04T09:51:34.928Z,1.5
2019-01-04T09:52:35.125Z,1.44
2019-01-04T09:53:34.898Z,1.44
2019-01-04T09:54:34.833Z,1.44
2019-01-04T09:55:37.208Z,1.44
2019-01-04T09:56:34.640Z,1.44
2019-01-04T09:57:35.151Z,1.44
2019-01-04T09:58:34.771Z,1.5
2019-01-04T09:59:34.960Z,1.5
2019-01-04T10:00:35.093Z,1.5
2019-01-04T10:01:35.691Z,1.5
2019-01-04T10:02:34.735Z,1.5
2019-01-04T10:03:34.721Z,1.5
2019-01-04T10:04:35.274Z,1.5
2019-01-04T10:05:34.929Z,1.5
2019-01-04T10:06:35.090Z,1.56
2019-01-04T10:07:34.943Z,1.56
2019-01-04T10:08:34.892Z,1.56
2019-01-04T10:09:35.192Z,1.5
2019-01-04T10:10:34.830Z,1.56
2019-01-04T10:11:35.580Z,1.56
2019-01-04T10:12:34.958Z,1.56
2019-01-04T10:13:34.954Z,1.56
2019-01-04T10:14:34.573Z,1.62
2019-01-04T10:15:34.692Z,1.56
2019-01-04T10:16:34.749Z,1.62
2019-01-04T10:17:34.797Z,1.62
2019-01-04T10:18:35.530Z,1.62
2019-01-04T10:19:34.812Z,1.62
2019-01-04T10:20:35.106Z,1.62
2019-01-04T10:21:35.560Z,1.62
2019-01-04T10:22:34.853Z,1.62
2019-01-04T10:23:34.788Z,1.62
2019-01-04T10:24:34.914Z,1.62
2019-01-04T10:25:34.753Z,1.62
2019-01-04T10:26:34.877Z,1.62
2019-01-04T10:27:34.713Z,1.62
2019-01-04T10:28:34.766Z,1.62
2019-01-04T10:29:34.917Z,1.62
2019-01-04T10:30:34.786Z,1.62
2019-01-04T10:31:34.742Z,1.62
2019-01-04T10:32:34.908Z,1.62
2019-01-04T10:33:34.926Z,1.62
2019-01-04T10:34:34.953Z,1.69
2019-01-04T10:35:34.736Z,1.62
2019-01-04T10:36:34.830Z,1.62
2019-01-04T10:37:34.859Z,1.62
2019-01-04T10:38:34.720Z,1.62
2019-01-04T10:39:34.682Z,1.62
2019-01-04T10:40:34.891Z,1.62
2019-01-04T10:41:34.774Z,1.62
2019-01-04T10:42:34.714Z,1.62
2019-01-04T10:43:34.876Z,1.62
2019-01-04T10:44:34.659Z,1.62
2019-01-04T10:45:34.687Z,1.62
2019-01-04T10:46:34.644Z,1.69
2019-01-04T10:47:35.165Z,1.69
2019-01-04T10:48:34.687Z,1.69
2019-01-04T10:49:34.800Z,1.69
2019-01-04T10:50:34.756Z,1.69
2019-01-04T10:51:34.642Z,1.69
2019-01-04T10:52:34.740Z,1.69
2019-01-04T10:53:34.692Z,1.69
2019-01-04T10:54:34.802Z,1.75
2019-01-04T10:55:34.707Z,1.75
2019-01-04T10:56:34.821Z,1.75
2019-01-04T10:57:35.135Z,1.75
2019-01-04T10:58:34.751Z,1.81
2019-01-04T10:59:34.799Z,1.81
2019-01-04T11:00:34.843Z,1.81
2019-01-04T11:01:34.676Z,1.81
2019-01-04T11:02:34.791Z,1.75
2019-01-04T11:03:34.986Z,1.81
2019-01-04T11:04:34.824Z,1.81
2019-01-04T11:05:34.928Z,1.87
2019-01-04T11:06:34.881Z,1.81
2019-01-04T11:07:35.202Z,1.94
2019-01-04T11:08:34.824Z,1.94
2019-01-04T11:09:34.618Z,1.94
2019-01-04T11:10:34.971Z,2
2019-01-04T11:11:34.741Z,2
2019-01-04T11:12:34.777Z,2.06
2019-01-04T11:13:34.714Z,2.12
2019-01-04T11:14:34.819Z,2.12
2019-01-04T11:15:35.256Z,2.19
2019-01-04T11:16:34.684Z,2.19
2019-01-04T11:17:34.965Z,2.31
2019-01-04T11:18:34.682Z,2.37
2019-01-04T11:19:34.642Z,2.37
2019-01-04T11:20:34.618Z,2.37
2019-01-04T11:21:34.764Z,2.44
2019-01-04T11:22:34.795Z,2.5
2019-01-04T11:23:34.932Z,2.5
2019-01-04T11:24:35.197Z,2.56
2019-01-04T11:25:34.651Z,2.62
2019-01-04T11:26:35.085Z,2.62
2019-01-04T11:27:35.450Z,2.69
2019-01-04T11:28:34.727Z,2.75
2019-01-04T11:29:34.679Z,2.81
2019-01-04T11:30:34.614Z,2.81
2019-01-04T11:31:35.465Z,2.87
2019-01-04T11:32:35.156Z,2.87
2019-01-04T11:33:34.908Z,2.94
2019-01-04T11:34:35.447Z,3
2019-01-04T11:35:35.018Z,3.06
2019-01-04T11:36:34.863Z,3.12
2019-01-04T11:37:34.940Z,3.19
2019-01-04T11:38:34.823Z,3.12
2019-01-04T11:39:34.765Z,3.12
2019-01-04T11:40:35.461Z,3.19
2019-01-04T11:41:34.648Z,3.19
2019-01-04T11:42:35.297Z,3.19
2019-01-04T11:43:34.866Z,3.12
2019-01-04T11:44:35.062Z,3.19
2019-01-04T11:45:34.845Z,3.19
2019-01-04T11:46:35.246Z,3.19
2019-01-04T11:47:34.894Z,3.19
2019-01-04T11:48:34.929Z,3.19
2019-01-04T11:49:34.888Z,3.19
2019-01-04T11:50:35.562Z,3.19
2019-01-04T11:51:34.787Z,3.19
2019-01-04T11:52:34.827Z,3.19
2019-01-04T11:53:34.900Z,3.19
2019-01-04T11:54:34.620Z,3.19
2019-01-04T11:55:34.878Z,3.19
2019-01-04T11:56:34.631Z,3.19
2019-01-04T11:57:34.945Z,3.19
2019-01-04T11:58:34.747Z,3.19
2019-01-04T11:59:34.973Z,3.12
2019-01-04T12:00:34.951Z,3.19
2019-01-04T12:01:35.462Z,3.19
2019-01-04T12:02:34.830Z,3.19
2019-01-04T12:03:34.565Z,3.19
2019-01-04T12:04:34.753Z,3.19
2019-01-04T12:05:34.883Z,3.19
2019-01-04T12:06:34.717Z,3.12
2019-01-04T12:07:34.699Z,3.19
2019-01-04T12:08:34.895Z,3.19
2019-01-04T12:09:35.148Z,3.19
2019-01-04T12:10:34.733Z,3.19
2019-01-04T12:11:34.597Z,3.19
2019-01-04T12:12:34.676Z,3.12
2019-01-04T12:13:34.528Z,3.19
2019-01-04T12:14:34.554Z,3.12
2019-01-04T12:15:34.681Z,3.19
2019-01-04T12:16:34.756Z,3.19
2019-01-04T12:17:34.639Z,3.19
2019-01-04T12:18:34.583Z,3.12
2019-01-04T12:19:34.713Z,3.19
2019-01-04T12:20:34.605Z,3.19
2019-01-04T12:21:34.876Z,3.12
2019-01-04T12:22:34.610Z,3.19
2019-01-04T12:23:34.962Z,3.19
2019-01-04T12:24:34.703Z,3.19
2019-01-04T12:25:34.669Z,3.12
2019-01-04T12:26:34.567Z,3.12
2019-01-04T12:27:34.605Z,3.19
2019-01-04T12:28:34.629Z,3.19
2019-01-04T12:29:34.769Z,3.19
2019-01-04T12:30:34.606Z,3.19
2019-01-04T12:31:34.546Z,3.19
2019-01-04T12:32:34.640Z,3.19
2019-01-04T12:33:34.764Z,3.19
2019-01-04T12:34:34.603Z,3.25
2019-01-04T12:35:34.535Z,3.25
2019-01-04T12:36:34.513Z,3.19
2019-01-04T12:37:34.575Z,3.19
2019-01-04T12:38:34.590Z,3.19
2019-01-04T12:39:34.676Z,3.19
2019-01-04T12:40:34.800Z,3.25
2019-01-04T12:41:34.513Z,3.19
2019-01-04T12:42:34.915Z,3.25
2019-01-04T12:43:34.594Z,3.19
2019-01-04T12:44:34.497Z,3.19
2019-01-04T12:45:34.974Z,3.19
2019-01-04T12:46:34.698Z,3.19
2019-01-04T12:47:35.375Z,3.19
2019-01-04T12:48:34.767Z,3.25
2019-01-04T12:49:34.911Z,3.25
2019-01-04T12:50:34.781Z,3.25
2019-01-04T12:51:34.616Z,3.19
2019-01-04T12:52:34.918Z,3.25
2019-01-04T12:53:34.566Z,3.25
2019-01-04T12:54:34.832Z,3.25
2019-01-04T12:55:34.599Z,3.25
2019-01-04T12:56:34.727Z,3.25
2019-01-04T12:57:34.676Z,3.25
2019-01-04T12:58:34.702Z,3.25
2019-01-04T12:59:34.672Z,3.25
2019-01-04T13:00:34.651Z,3.25
2019-01-04T13:01:34.612Z,3.25
2019-01-04T13:02:34.488Z,3.25
2019-01-04T13:03:34.670Z,3.25
2019-01-04T13:04:35.172Z,3.25
2019-01-04T13:05:34.835Z,3.25
2019-01-04T13:06:34.501Z,3.25
2019-01-04T13:07:34.626Z,3.25
2019-01-04T13:08:34.767Z,3.31
2019-01-04T13:09:34.811Z,3.25
2019-01-04T13:10:36.084Z,3.31
2019-01-04T13:11:34.832Z,3.37
2019-01-04T13:12:34.730Z,3.31
2019-01-04T13:13:34.942Z,3.31
2019-01-04T13:14:34.768Z,3.31
2019-01-04T13:15:34.915Z,3.37
2019-01-04T13:16:34.487Z,3.31
2019-01-04T13:17:34.843Z,3.31
2019-01-04T13:18:34.791Z,3.37
2019-01-04T13:19:34.858Z,3.31
2019-01-04T13:20:34.840Z,3.37
2019-01-04T13:21:35.013Z,3.31
2019-01-04T13:22:34.713Z,3.31